sensor_id;sensor_type;location;lat;lon;timestamp;P1;durP1;ratioP1;P2;durP2;ratioP2
83282;SDS011;73190;50.780;5.658;2024-02-16T00:00:12;4.58;;;1.98;;
83282;SDS011;73190;50.780;5.658;2024-02-16T00:02:41;4.25;;;1.80;;
83282;SDS011;73190;50.780;5.658;2024-02-16T00:05:10;2.83;;;1.50;;
83282;SDS011;73190;50.780;5.658;2024-02-16T00:07:40;2.77;;;1.40;;
83282;SDS011;73190;50.780;5.658;2024-02-16T00:10:08;3.37;;;1.72;;
83282;SDS011;73190;50.780;5.658;2024-02-16T00:12:38;3.55;;;1.40;;
83282;SDS011;73190;50.780;5.658;2024-02-16T00:15:06;3.22;;;1.52;;
83282;SDS011;73190;50.780;5.658;2024-02-16T00:17:34;3.92;;;1.80;;
83282;SDS011;73190;50.780;5.658;2024-02-16T00:20:03;4.62;;;1.75;;
83282;SDS011;73190;50.780;5.658;2024-02-16T00:22:33;5.03;;;1.52;;
83282;SDS011;73190;50.780;5.658;2024-02-16T00:25:00;3.40;;;1.47;;
83282;SDS011;73190;50.780;5.658;2024-02-16T00:27:29;3.35;;;2.10;;
83282;SDS011;73190;50.780;5.658;2024-02-16T00:29:57;3.58;;;1.62;;
83282;SDS011;73190;50.780;5.658;2024-02-16T00:32:25;4.15;;;1.60;;
83282;SDS011;73190;50.780;5.658;2024-02-16T00:34:54;2.92;;;1.47;;
83282;SDS011;73190;50.780;5.658;2024-02-16T00:37:21;4.58;;;1.57;;
83282;SDS011;73190;50.780;5.658;2024-02-16T00:39:50;4.33;;;1.70;;
83282;SDS011;73190;50.780;5.658;2024-02-16T00:42:19;5.17;;;1.60;;
83282;SDS011;73190;50.780;5.658;2024-02-16T00:44:49;5.60;;;1.75;;
83282;SDS011;73190;50.780;5.658;2024-02-16T00:47:16;3.37;;;1.15;;
83282;SDS011;73190;50.780;5.658;2024-02-16T00:49:44;2.45;;;1.52;;
83282;SDS011;73190;50.780;5.658;2024-02-16T00:52:12;2.95;;;1.50;;
83282;SDS011;73190;50.780;5.658;2024-02-16T00:54:39;2.77;;;1.55;;
83282;SDS011;73190;50.780;5.658;2024-02-16T00:57:07;3.95;;;1.75;;
83282;SDS011;73190;50.780;5.658;2024-02-16T00:59:34;3.17;;;1.40;;
83282;SDS011;73190;50.780;5.658;2024-02-16T01:02:02;5.33;;;1.92;;
83282;SDS011;73190;50.780;5.658;2024-02-16T01:04:29;3.47;;;1.70;;
83282;SDS011;73190;50.780;5.658;2024-02-16T01:06:57;2.85;;;1.60;;
83282;SDS011;73190;50.780;5.658;2024-02-16T01:09:25;3.08;;;1.52;;
83282;SDS011;73190;50.780;5.658;2024-02-16T01:11:52;5.03;;;1.62;;
83282;SDS011;73190;50.780;5.658;2024-02-16T01:14:20;3.35;;;1.52;;
83282;SDS011;73190;50.780;5.658;2024-02-16T01:16:47;5.97;;;1.70;;
83282;SDS011;73190;50.780;5.658;2024-02-16T01:19:15;5.33;;;1.72;;
83282;SDS011;73190;50.780;5.658;2024-02-16T01:21:43;4.75;;;1.57;;
83282;SDS011;73190;50.780;5.658;2024-02-16T01:24:12;5.78;;;1.85;;
83282;SDS011;73190;50.780;5.658;2024-02-16T01:26:40;5.22;;;1.80;;
83282;SDS011;73190;50.780;5.658;2024-02-16T01:29:07;4.00;;;1.45;;
83282;SDS011;73190;50.780;5.658;2024-02-16T01:31:35;5.10;;;1.80;;
83282;SDS011;73190;50.780;5.658;2024-02-16T01:34:02;3.05;;;1.50;;
83282;SDS011;73190;50.780;5.658;2024-02-16T01:36:30;4.60;;;1.60;;
83282;SDS011;73190;50.780;5.658;2024-02-16T01:38:57;4.08;;;1.70;;
83282;SDS011;73190;50.780;5.658;2024-02-16T01:41:25;5.53;;;1.52;;
83282;SDS011;73190;50.780;5.658;2024-02-16T01:43:53;3.12;;;1.45;;
83282;SDS011;73190;50.780;5.658;2024-02-16T01:46:25;3.10;;;1.52;;
83282;SDS011;73190;50.780;5.658;2024-02-16T01:48:52;4.12;;;1.98;;
83282;SDS011;73190;50.780;5.658;2024-02-16T01:51:21;2.72;;;1.40;;
83282;SDS011;73190;50.780;5.658;2024-02-16T01:53:51;4.05;;;2.08;;
83282;SDS011;73190;50.780;5.658;2024-02-16T01:56:20;4.33;;;1.45;;
83282;SDS011;73190;50.780;5.658;2024-02-16T01:58:48;4.62;;;1.60;;
83282;SDS011;73190;50.780;5.658;2024-02-16T02:01:16;3.75;;;1.70;;
83282;SDS011;73190;50.780;5.658;2024-02-16T02:03:43;5.83;;;1.90;;
83282;SDS011;73190;50.780;5.658;2024-02-16T02:06:11;3.70;;;1.70;;
83282;SDS011;73190;50.780;5.658;2024-02-16T02:08:38;4.00;;;1.67;;
83282;SDS011;73190;50.780;5.658;2024-02-16T02:11:06;3.85;;;1.60;;
83282;SDS011;73190;50.780;5.658;2024-02-16T02:13:33;3.65;;;1.75;;
83282;SDS011;73190;50.780;5.658;2024-02-16T02:16:01;4.35;;;1.87;;
83282;SDS011;73190;50.780;5.658;2024-02-16T02:18:31;3.72;;;1.50;;
83282;SDS011;73190;50.780;5.658;2024-02-16T02:20:58;4.15;;;1.75;;
83282;SDS011;73190;50.780;5.658;2024-02-16T02:23:26;4.12;;;1.82;;
83282;SDS011;73190;50.780;5.658;2024-02-16T02:25:54;4.85;;;1.75;;
83282;SDS011;73190;50.780;5.658;2024-02-16T02:28:21;4.78;;;1.60;;
83282;SDS011;73190;50.780;5.658;2024-02-16T02:30:50;3.65;;;1.25;;
83282;SDS011;73190;50.780;5.658;2024-02-16T02:33:19;4.05;;;1.77;;
83282;SDS011;73190;50.780;5.658;2024-02-16T02:35:46;4.15;;;1.75;;
83282;SDS011;73190;50.780;5.658;2024-02-16T02:38:14;3.67;;;1.37;;
83282;SDS011;73190;50.780;5.658;2024-02-16T02:40:42;5.53;;;1.40;;
83282;SDS011;73190;50.780;5.658;2024-02-16T02:43:09;3.37;;;1.50;;
83282;SDS011;73190;50.780;5.658;2024-02-16T02:45:37;3.92;;;1.80;;
83282;SDS011;73190;50.780;5.658;2024-02-16T02:48:05;6.30;;;1.90;;
83282;SDS011;73190;50.780;5.658;2024-02-16T02:50:32;4.25;;;1.60;;
83282;SDS011;73190;50.780;5.658;2024-02-16T02:53:00;5.10;;;1.87;;
83282;SDS011;73190;50.780;5.658;2024-02-16T02:55:27;4.12;;;1.40;;
83282;SDS011;73190;50.780;5.658;2024-02-16T02:57:55;2.83;;;1.40;;
83282;SDS011;73190;50.780;5.658;2024-02-16T03:00:23;3.62;;;1.50;;
83282;SDS011;73190;50.780;5.658;2024-02-16T03:02:51;6.70;;;1.80;;
83282;SDS011;73190;50.780;5.658;2024-02-16T03:05:19;4.53;;;1.50;;
83282;SDS011;73190;50.780;5.658;2024-02-16T03:07:47;4.53;;;1.50;;
83282;SDS011;73190;50.780;5.658;2024-02-16T03:10:15;6.40;;;2.00;;
83282;SDS011;73190;50.780;5.658;2024-02-16T03:12:44;5.13;;;1.53;;
83282;SDS011;73190;50.780;5.658;2024-02-16T03:15:11;6.85;;;1.95;;
83282;SDS011;73190;50.780;5.658;2024-02-16T03:17:39;3.35;;;1.62;;
83282;SDS011;73190;50.780;5.658;2024-02-16T03:20:06;5.97;;;1.62;;
83282;SDS011;73190;50.780;5.658;2024-02-16T03:22:34;3.90;;;1.98;;
83282;SDS011;73190;50.780;5.658;2024-02-16T03:25:02;5.90;;;1.85;;
83282;SDS011;73190;50.780;5.658;2024-02-16T03:27:30;5.45;;;1.90;;
83282;SDS011;73190;50.780;5.658;2024-02-16T03:29:58;5.37;;;1.82;;
83282;SDS011;73190;50.780;5.658;2024-02-16T03:32:26;2.62;;;1.60;;
83282;SDS011;73190;50.780;5.658;2024-02-16T03:34:53;4.78;;;1.60;;
83282;SDS011;73190;50.780;5.658;2024-02-16T03:37:24;3.22;;;1.87;;
83282;SDS011;73190;50.780;5.658;2024-02-16T03:39:53;5.92;;;1.62;;
83282;SDS011;73190;50.780;5.658;2024-02-16T03:42:20;8.95;;;1.90;;
83282;SDS011;73190;50.780;5.658;2024-02-16T03:44:48;4.95;;;1.50;;
83282;SDS011;73190;50.780;5.658;2024-02-16T03:47:15;6.45;;;1.67;;
83282;SDS011;73190;50.780;5.658;2024-02-16T03:49:43;5.42;;;1.77;;
83282;SDS011;73190;50.780;5.658;2024-02-16T03:52:11;4.50;;;1.70;;
83282;SDS011;73190;50.780;5.658;2024-02-16T03:54:39;4.10;;;1.80;;
83282;SDS011;73190;50.780;5.658;2024-02-16T03:57:09;6.90;;;2.00;;
83282;SDS011;73190;50.780;5.658;2024-02-16T03:59:37;6.92;;;1.82;;
83282;SDS011;73190;50.780;5.658;2024-02-16T04:02:05;4.40;;;1.72;;
83282;SDS011;73190;50.780;5.658;2024-02-16T04:04:32;7.30;;;2.22;;
83282;SDS011;73190;50.780;5.658;2024-02-16T04:07:00;5.80;;;1.75;;
83282;SDS011;73190;50.780;5.658;2024-02-16T04:09:27;5.60;;;1.90;;
83282;SDS011;73190;50.780;5.658;2024-02-16T04:11:55;7.03;;;2.50;;
83282;SDS011;73190;50.780;5.658;2024-02-16T04:14:22;5.33;;;1.52;;
83282;SDS011;73190;50.780;5.658;2024-02-16T04:16:50;3.58;;;1.67;;
83282;SDS011;73190;50.780;5.658;2024-02-16T04:19:19;4.07;;;2.00;;
83282;SDS011;73190;50.780;5.658;2024-02-16T04:21:47;3.17;;;1.60;;
83282;SDS011;73190;50.780;5.658;2024-02-16T04:24:14;6.17;;;1.75;;
83282;SDS011;73190;50.780;5.658;2024-02-16T04:26:42;6.25;;;1.80;;
83282;SDS011;73190;50.780;5.658;2024-02-16T04:29:09;5.03;;;2.10;;
83282;SDS011;73190;50.780;5.658;2024-02-16T04:31:40;7.28;;;1.75;;
83282;SDS011;73190;50.780;5.658;2024-02-16T04:34:10;5.97;;;2.12;;
83282;SDS011;73190;50.780;5.658;2024-02-16T04:36:38;6.67;;;2.15;;
83282;SDS011;73190;50.780;5.658;2024-02-16T04:39:05;4.60;;;2.12;;
83282;SDS011;73190;50.780;5.658;2024-02-16T04:41:34;6.77;;;1.83;;
83282;SDS011;73190;50.780;5.658;2024-02-16T04:44:02;5.87;;;1.80;;
83282;SDS011;73190;50.780;5.658;2024-02-16T04:46:30;5.15;;;1.67;;
83282;SDS011;73190;50.780;5.658;2024-02-16T04:48:57;5.12;;;1.47;;
83282;SDS011;73190;50.780;5.658;2024-02-16T04:51:25;5.97;;;1.57;;
83282;SDS011;73190;50.780;5.658;2024-02-16T04:53:52;4.08;;;2.10;;
83282;SDS011;73190;50.780;5.658;2024-02-16T04:56:20;5.30;;;2.05;;
83282;SDS011;73190;50.780;5.658;2024-02-16T04:58:48;3.87;;;1.80;;
83282;SDS011;73190;50.780;5.658;2024-02-16T05:01:16;5.37;;;1.80;;
83282;SDS011;73190;50.780;5.658;2024-02-16T05:03:43;5.37;;;2.22;;
83282;SDS011;73190;50.780;5.658;2024-02-16T05:06:11;5.05;;;1.77;;
83282;SDS011;73190;50.780;5.658;2024-02-16T05:08:38;4.15;;;1.95;;
83282;SDS011;73190;50.780;5.658;2024-02-16T05:11:06;5.45;;;2.02;;
83282;SDS011;73190;50.780;5.658;2024-02-16T05:13:35;5.92;;;1.80;;
83282;SDS011;73190;50.780;5.658;2024-02-16T05:16:07;4.63;;;1.60;;
83282;SDS011;73190;50.780;5.658;2024-02-16T05:18:33;4.25;;;1.37;;
83282;SDS011;73190;50.780;5.658;2024-02-16T05:21:01;5.45;;;1.98;;
83282;SDS011;73190;50.780;5.658;2024-02-16T05:23:28;7.97;;;2.00;;
83282;SDS011;73190;50.780;5.658;2024-02-16T05:25:57;5.62;;;1.72;;
83282;SDS011;73190;50.780;5.658;2024-02-16T05:28:24;7.58;;;2.25;;
83282;SDS011;73190;50.780;5.658;2024-02-16T05:30:52;5.83;;;1.72;;
83282;SDS011;73190;50.780;5.658;2024-02-16T05:33:20;8.23;;;1.67;;
83282;SDS011;73190;50.780;5.658;2024-02-16T05:35:47;6.60;;;1.98;;
83282;SDS011;73190;50.780;5.658;2024-02-16T05:38:16;6.90;;;1.73;;
83282;SDS011;73190;50.780;5.658;2024-02-16T05:40:48;5.55;;;1.90;;
83282;SDS011;73190;50.780;5.658;2024-02-16T05:43:19;4.72;;;1.65;;
83282;SDS011;73190;50.780;5.658;2024-02-16T05:45:47;6.75;;;1.70;;
83282;SDS011;73190;50.780;5.658;2024-02-16T05:48:14;6.20;;;1.85;;
83282;SDS011;73190;50.780;5.658;2024-02-16T05:50:42;6.97;;;1.95;;
83282;SDS011;73190;50.780;5.658;2024-02-16T05:53:10;6.50;;;1.98;;
83282;SDS011;73190;50.780;5.658;2024-02-16T05:55:37;5.15;;;1.72;;
83282;SDS011;73190;50.780;5.658;2024-02-16T05:58:05;7.03;;;1.85;;
83282;SDS011;73190;50.780;5.658;2024-02-16T06:00:33;4.85;;;2.00;;
83282;SDS011;73190;50.780;5.658;2024-02-16T06:03:01;5.22;;;1.87;;
83282;SDS011;73190;50.780;5.658;2024-02-16T06:05:28;5.50;;;1.67;;
83282;SDS011;73190;50.780;5.658;2024-02-16T06:07:56;7.53;;;2.02;;
83282;SDS011;73190;50.780;5.658;2024-02-16T06:10:24;4.85;;;1.92;;
83282;SDS011;73190;50.780;5.658;2024-02-16T06:12:52;5.00;;;1.80;;
83282;SDS011;73190;50.780;5.658;2024-02-16T06:15:19;6.30;;;1.98;;
83282;SDS011;73190;50.780;5.658;2024-02-16T06:17:48;5.58;;;1.95;;
83282;SDS011;73190;50.780;5.658;2024-02-16T06:20:16;7.20;;;1.77;;
83282;SDS011;73190;50.780;5.658;2024-02-16T06:22:44;6.37;;;2.45;;
83282;SDS011;73190;50.780;5.658;2024-02-16T06:25:11;6.87;;;2.10;;
83282;SDS011;73190;50.780;5.658;2024-02-16T06:27:39;5.78;;;2.30;;
83282;SDS011;73190;50.780;5.658;2024-02-16T06:30:07;8.78;;;2.55;;
83282;SDS011;73190;50.780;5.658;2024-02-16T06:32:36;7.55;;;2.15;;
83282;SDS011;73190;50.780;5.658;2024-02-16T06:35:04;6.42;;;1.92;;
83282;SDS011;73190;50.780;5.658;2024-02-16T06:37:33;6.17;;;2.47;;
83282;SDS011;73190;50.780;5.658;2024-02-16T06:40:00;7.35;;;2.00;;
83282;SDS011;73190;50.780;5.658;2024-02-16T06:42:28;4.92;;;2.00;;
83282;SDS011;73190;50.780;5.658;2024-02-16T06:44:56;6.58;;;2.00;;
83282;SDS011;73190;50.780;5.658;2024-02-16T06:47:24;6.78;;;2.08;;
83282;SDS011;73190;50.780;5.658;2024-02-16T06:49:51;7.40;;;2.58;;
83282;SDS011;73190;50.780;5.658;2024-02-16T06:52:19;8.10;;;2.17;;
83282;SDS011;73190;50.780;5.658;2024-02-16T06:54:46;5.87;;;2.00;;
83282;SDS011;73190;50.780;5.658;2024-02-16T06:57:15;5.67;;;2.20;;
83282;SDS011;73190;50.780;5.658;2024-02-16T06:59:43;4.75;;;1.70;;
83282;SDS011;73190;50.780;5.658;2024-02-16T07:02:11;5.97;;;2.72;;
83282;SDS011;73190;50.780;5.658;2024-02-16T07:04:40;8.40;;;3.95;;
83282;SDS011;73190;50.780;5.658;2024-02-16T07:07:07;9.13;;;2.70;;
83282;SDS011;73190;50.780;5.658;2024-02-16T07:09:35;5.87;;;2.30;;
83282;SDS011;73190;50.780;5.658;2024-02-16T07:12:06;6.20;;;1.85;;
83282;SDS011;73190;50.780;5.658;2024-02-16T07:14:34;5.90;;;2.40;;
83282;SDS011;73190;50.780;5.658;2024-02-16T07:17:01;10.10;;;2.85;;
83282;SDS011;73190;50.780;5.658;2024-02-16T07:19:29;8.70;;;2.50;;
83282;SDS011;73190;50.780;5.658;2024-02-16T07:21:56;7.08;;;2.30;;
83282;SDS011;73190;50.780;5.658;2024-02-16T07:24:24;8.13;;;2.10;;
83282;SDS011;73190;50.780;5.658;2024-02-16T07:26:53;8.08;;;2.25;;
83282;SDS011;73190;50.780;5.658;2024-02-16T07:29:20;4.40;;;2.15;;
83282;SDS011;73190;50.780;5.658;2024-02-16T07:31:48;7.20;;;2.27;;
83282;SDS011;73190;50.780;5.658;2024-02-16T07:34:17;5.20;;;2.05;;
83282;SDS011;73190;50.780;5.658;2024-02-16T07:36:45;4.87;;;2.30;;
83282;SDS011;73190;50.780;5.658;2024-02-16T07:39:13;6.62;;;2.70;;
83282;SDS011;73190;50.780;5.658;2024-02-16T07:41:40;6.85;;;2.40;;
83282;SDS011;73190;50.780;5.658;2024-02-16T07:44:07;5.25;;;2.05;;
83282;SDS011;73190;50.780;5.658;2024-02-16T07:46:39;5.45;;;1.82;;
83282;SDS011;73190;50.780;5.658;2024-02-16T07:49:07;5.65;;;2.22;;
83282;SDS011;73190;50.780;5.658;2024-02-16T07:51:36;8.68;;;2.47;;
83282;SDS011;73190;50.780;5.658;2024-02-16T07:54:04;7.17;;;2.27;;
83282;SDS011;73190;50.780;5.658;2024-02-16T07:56:34;5.35;;;2.30;;
83282;SDS011;73190;50.780;5.658;2024-02-16T07:59:01;5.05;;;2.22;;
83282;SDS011;73190;50.780;5.658;2024-02-16T08:01:29;7.37;;;2.20;;
83282;SDS011;73190;50.780;5.658;2024-02-16T08:03:56;8.18;;;2.30;;
83282;SDS011;73190;50.780;5.658;2024-02-16T08:06:25;8.18;;;2.22;;
83282;SDS011;73190;50.780;5.658;2024-02-16T08:08:53;8.98;;;2.40;;
83282;SDS011;73190;50.780;5.658;2024-02-16T08:11:22;9.43;;;2.50;;
83282;SDS011;73190;50.780;5.658;2024-02-16T08:13:49;7.30;;;2.02;;
83282;SDS011;73190;50.780;5.658;2024-02-16T08:16:17;5.55;;;2.25;;
83282;SDS011;73190;50.780;5.658;2024-02-16T08:18:44;6.80;;;2.15;;
83282;SDS011;73190;50.780;5.658;2024-02-16T08:21:12;9.00;;;2.62;;
83282;SDS011;73190;50.780;5.658;2024-02-16T08:23:39;8.00;;;2.52;;
83282;SDS011;73190;50.780;5.658;2024-02-16T08:26:07;8.15;;;3.02;;
83282;SDS011;73190;50.780;5.658;2024-02-16T08:28:35;7.62;;;2.10;;
83282;SDS011;73190;50.780;5.658;2024-02-16T08:31:05;8.90;;;2.20;;
83282;SDS011;73190;50.780;5.658;2024-02-16T08:33:32;8.28;;;2.10;;
83282;SDS011;73190;50.780;5.658;2024-02-16T08:36:02;7.53;;;2.12;;
83282;SDS011;73190;50.780;5.658;2024-02-16T08:38:31;6.45;;;2.55;;
83282;SDS011;73190;50.780;5.658;2024-02-16T08:40:59;6.55;;;2.20;;
83282;SDS011;73190;50.780;5.658;2024-02-16T08:43:27;5.47;;;2.75;;
83282;SDS011;73190;50.780;5.658;2024-02-16T08:45:54;9.15;;;2.55;;
83282;SDS011;73190;50.780;5.658;2024-02-16T08:48:23;7.30;;;2.30;;
83282;SDS011;73190;50.780;5.658;2024-02-16T08:50:51;8.93;;;2.57;;
83282;SDS011;73190;50.780;5.658;2024-02-16T08:53:19;5.78;;;2.30;;
83282;SDS011;73190;50.780;5.658;2024-02-16T08:55:46;9.43;;;2.37;;
83282;SDS011;73190;50.780;5.658;2024-02-16T08:58:14;7.55;;;2.47;;
83282;SDS011;73190;50.780;5.658;2024-02-16T09:00:41;7.33;;;2.40;;
83282;SDS011;73190;50.780;5.658;2024-02-16T09:03:09;9.73;;;2.77;;
83282;SDS011;73190;50.780;5.658;2024-02-16T09:05:37;8.43;;;2.47;;
83282;SDS011;73190;50.780;5.658;2024-02-16T09:08:05;7.05;;;2.30;;
83282;SDS011;73190;50.780;5.658;2024-02-16T09:10:34;7.80;;;2.83;;
83282;SDS011;73190;50.780;5.658;2024-02-16T09:13:02;7.20;;;2.50;;
83282;SDS011;73190;50.780;5.658;2024-02-16T09:15:30;7.95;;;2.40;;
83282;SDS011;73190;50.780;5.658;2024-02-16T09:17:57;12.73;;;3.10;;
83282;SDS011;73190;50.780;5.658;2024-02-16T09:20:25;7.15;;;2.72;;
83282;SDS011;73190;50.780;5.658;2024-02-16T09:22:53;6.62;;;2.52;;
83282;SDS011;73190;50.780;5.658;2024-02-16T09:25:20;11.48;;;2.67;;
83282;SDS011;73190;50.780;5.658;2024-02-16T09:27:49;7.15;;;2.20;;
83282;SDS011;73190;50.780;5.658;2024-02-16T09:30:16;7.60;;;2.50;;
83282;SDS011;73190;50.780;5.658;2024-02-16T09:32:44;8.50;;;2.92;;
83282;SDS011;73190;50.780;5.658;2024-02-16T09:35:11;11.35;;;2.75;;
83282;SDS011;73190;50.780;5.658;2024-02-16T09:37:39;6.90;;;2.60;;
83282;SDS011;73190;50.780;5.658;2024-02-16T09:40:07;7.00;;;2.77;;
83282;SDS011;73190;50.780;5.658;2024-02-16T09:42:37;11.40;;;2.67;;
83282;SDS011;73190;50.780;5.658;2024-02-16T09:45:06;10.63;;;2.55;;
83282;SDS011;73190;50.780;5.658;2024-02-16T09:47:38;11.33;;;2.67;;
83282;SDS011;73190;50.780;5.658;2024-02-16T09:50:06;7.00;;;2.63;;
83282;SDS011;73190;50.780;5.658;2024-02-16T09:52:40;7.35;;;2.75;;
83282;SDS011;73190;50.780;5.658;2024-02-16T09:55:04;6.50;;;2.72;;
83282;SDS011;73190;50.780;5.658;2024-02-16T09:57:34;9.10;;;2.67;;
83282;SDS011;73190;50.780;5.658;2024-02-16T10:00:02;8.18;;;2.95;;
83282;SDS011;73190;50.780;5.658;2024-02-16T10:02:45;7.25;;;2.62;;
83282;SDS011;73190;50.780;5.658;2024-02-16T10:07:43;7.47;;;2.92;;
83282;SDS011;73190;50.780;5.658;2024-02-16T10:10:20;16.42;;;3.92;;
83282;SDS011;73190;50.780;5.658;2024-02-16T10:12:48;10.45;;;3.37;;
83282;SDS011;73190;50.780;5.658;2024-02-16T10:15:22;7.47;;;3.30;;
83282;SDS011;73190;50.780;5.658;2024-02-16T10:17:57;14.78;;;3.87;;
83282;SDS011;73190;50.780;5.658;2024-02-16T10:20:25;11.03;;;3.62;;
83282;SDS011;73190;50.780;5.658;2024-02-16T10:23:03;9.28;;;3.25;;
83282;SDS011;73190;50.780;5.658;2024-02-16T10:25:34;11.95;;;3.83;;
83282;SDS011;73190;50.780;5.658;2024-02-16T10:28:06;8.78;;;3.45;;
83282;SDS011;73190;50.780;5.658;2024-02-16T10:30:37;10.13;;;3.67;;
83282;SDS011;73190;50.780;5.658;2024-02-16T10:33:08;10.80;;;3.20;;
83282;SDS011;73190;50.780;5.658;2024-02-16T10:35:38;10.63;;;3.72;;
83282;SDS011;73190;50.780;5.658;2024-02-16T10:38:06;8.80;;;3.50;;
83282;SDS011;73190;50.780;5.658;2024-02-16T10:40:37;11.75;;;4.35;;
83282;SDS011;73190;50.780;5.658;2024-02-16T10:43:08;9.15;;;3.55;;
83282;SDS011;73190;50.780;5.658;2024-02-16T10:45:37;9.30;;;3.40;;
83282;SDS011;73190;50.780;5.658;2024-02-16T10:48:07;11.20;;;3.80;;
83282;SDS011;73190;50.780;5.658;2024-02-16T10:50:34;10.07;;;3.50;;
83282;SDS011;73190;50.780;5.658;2024-02-16T10:53:09;11.18;;;3.90;;
83282;SDS011;73190;50.780;5.658;2024-02-16T10:55:39;9.98;;;3.87;;
83282;SDS011;73190;50.780;5.658;2024-02-16T10:58:10;9.08;;;4.17;;
83282;SDS011;73190;50.780;5.658;2024-02-16T11:00:51;9.43;;;3.60;;
83282;SDS011;73190;50.780;5.658;2024-02-16T11:03:23;10.08;;;4.28;;
83282;SDS011;73190;50.780;5.658;2024-02-16T11:05:52;8.30;;;3.65;;
83282;SDS011;73190;50.780;5.658;2024-02-16T11:08:21;9.08;;;4.15;;
83282;SDS011;73190;50.780;5.658;2024-02-16T11:10:54;13.10;;;4.42;;
83282;SDS011;73190;50.780;5.658;2024-02-16T11:13:25;22.67;;;4.55;;
83282;SDS011;73190;50.780;5.658;2024-02-16T11:16:01;11.33;;;4.40;;
83282;SDS011;73190;50.780;5.658;2024-02-16T11:18:30;12.93;;;3.90;;
83282;SDS011;73190;50.780;5.658;2024-02-16T11:21:02;8.05;;;4.30;;
83282;SDS011;73190;50.780;5.658;2024-02-16T11:23:31;13.55;;;4.80;;
83282;SDS011;73190;50.780;5.658;2024-02-16T11:26:01;10.25;;;4.50;;
83282;SDS011;73190;50.780;5.658;2024-02-16T11:28:32;12.20;;;4.83;;
83282;SDS011;73190;50.780;5.658;2024-02-16T11:31:01;14.20;;;4.53;;
83282;SDS011;73190;50.780;5.658;2024-02-16T11:33:29;10.30;;;4.50;;
83282;SDS011;73190;50.780;5.658;2024-02-16T11:35:58;11.45;;;4.90;;
83282;SDS011;73190;50.780;5.658;2024-02-16T11:38:26;8.87;;;4.70;;
83282;SDS011;73190;50.780;5.658;2024-02-16T11:40:55;7.75;;;4.28;;
83282;SDS011;73190;50.780;5.658;2024-02-16T11:43:26;11.35;;;4.50;;
83282;SDS011;73190;50.780;5.658;2024-02-16T11:45:54;10.72;;;5.30;;
83282;SDS011;73190;50.780;5.658;2024-02-16T11:48:22;11.30;;;4.95;;
83282;SDS011;73190;50.780;5.658;2024-02-16T11:51:00;13.62;;;5.35;;
83282;SDS011;73190;50.780;5.658;2024-02-16T11:53:29;14.33;;;5.30;;
83282;SDS011;73190;50.780;5.658;2024-02-16T11:55:57;15.10;;;5.97;;
83282;SDS011;73190;50.780;5.658;2024-02-16T11:58:25;19.77;;;5.97;;
83282;SDS011;73190;50.780;5.658;2024-02-16T12:00:54;11.05;;;5.60;;
83282;SDS011;73190;50.780;5.658;2024-02-16T12:03:24;9.30;;;5.22;;
83282;SDS011;73190;50.780;5.658;2024-02-16T12:05:54;15.18;;;6.75;;
83282;SDS011;73190;50.780;5.658;2024-02-16T12:08:23;12.83;;;5.97;;
83282;SDS011;73190;50.780;5.658;2024-02-16T12:10:52;11.93;;;6.00;;
83282;SDS011;73190;50.780;5.658;2024-02-16T12:13:22;10.08;;;5.33;;
83282;SDS011;73190;50.780;5.658;2024-02-16T12:15:50;12.53;;;5.90;;
83282;SDS011;73190;50.780;5.658;2024-02-16T12:18:24;14.90;;;5.62;;
83282;SDS011;73190;50.780;5.658;2024-02-16T12:21:00;9.80;;;5.45;;
83282;SDS011;73190;50.780;5.658;2024-02-16T12:23:36;13.28;;;5.10;;
83282;SDS011;73190;50.780;5.658;2024-02-16T12:26:04;15.83;;;5.25;;
83282;SDS011;73190;50.780;5.658;2024-02-16T12:28:31;15.98;;;6.47;;
83282;SDS011;73190;50.780;5.658;2024-02-16T12:30:59;19.30;;;6.80;;
83282;SDS011;73190;50.780;5.658;2024-02-16T12:33:27;10.85;;;5.45;;
83282;SDS011;73190;50.780;5.658;2024-02-16T12:35:54;9.98;;;5.70;;
83282;SDS011;73190;50.780;5.658;2024-02-16T12:38:22;16.37;;;7.67;;
83282;SDS011;73190;50.780;5.658;2024-02-16T12:40:49;14.18;;;5.80;;
83282;SDS011;73190;50.780;5.658;2024-02-16T12:43:17;16.42;;;6.00;;
83282;SDS011;73190;50.780;5.658;2024-02-16T12:45:45;12.85;;;6.15;;
83282;SDS011;73190;50.780;5.658;2024-02-16T12:48:13;12.23;;;6.03;;
83282;SDS011;73190;50.780;5.658;2024-02-16T12:50:40;10.58;;;7.03;;
83282;SDS011;73190;50.780;5.658;2024-02-16T12:53:08;12.05;;;6.20;;
83282;SDS011;73190;50.780;5.658;2024-02-16T12:55:36;14.53;;;7.00;;
83282;SDS011;73190;50.780;5.658;2024-02-16T12:58:03;14.78;;;7.00;;
83282;SDS011;73190;50.780;5.658;2024-02-16T13:00:31;14.98;;;7.50;;
83282;SDS011;73190;50.780;5.658;2024-02-16T13:02:59;15.30;;;7.12;;
83282;SDS011;73190;50.780;5.658;2024-02-16T13:05:26;13.78;;;7.45;;
83282;SDS011;73190;50.780;5.658;2024-02-16T13:07:56;15.28;;;7.53;;
83282;SDS011;73190;50.780;5.658;2024-02-16T13:10:23;16.07;;;7.50;;
83282;SDS011;73190;50.780;5.658;2024-02-16T13:12:51;17.65;;;8.18;;
83282;SDS011;73190;50.780;5.658;2024-02-16T13:15:18;18.48;;;7.70;;
83282;SDS011;73190;50.780;5.658;2024-02-16T13:17:46;13.55;;;7.70;;
83282;SDS011;73190;50.780;5.658;2024-02-16T13:20:13;16.17;;;9.43;;
83282;SDS011;73190;50.780;5.658;2024-02-16T13:22:41;13.00;;;7.65;;
83282;SDS011;73190;50.780;5.658;2024-02-16T13:25:09;20.80;;;12.82;;
83282;SDS011;73190;50.780;5.658;2024-02-16T13:27:36;15.48;;;8.85;;
83282;SDS011;73190;50.780;5.658;2024-02-16T13:30:04;21.17;;;12.95;;
83282;SDS011;73190;50.780;5.658;2024-02-16T13:32:37;17.30;;;11.20;;
83282;SDS011;73190;50.780;5.658;2024-02-16T13:35:03;15.98;;;9.08;;
83282;SDS011;73190;50.780;5.658;2024-02-16T13:37:31;13.35;;;9.23;;
83282;SDS011;73190;50.780;5.658;2024-02-16T13:39:58;13.00;;;9.45;;
83282;SDS011;73190;50.780;5.658;2024-02-16T13:42:27;11.12;;;9.30;;
83282;SDS011;73190;50.780;5.658;2024-02-16T13:44:56;16.42;;;11.80;;
83282;SDS011;73190;50.780;5.658;2024-02-16T13:47:24;14.18;;;11.15;;
83282;SDS011;73190;50.780;5.658;2024-02-16T13:49:51;14.25;;;11.63;;
83282;SDS011;73190;50.780;5.658;2024-02-16T13:52:19;17.02;;;10.95;;
83282;SDS011;73190;50.780;5.658;2024-02-16T13:54:47;17.50;;;11.93;;
83282;SDS011;73190;50.780;5.658;2024-02-16T13:57:14;15.40;;;11.40;;
83282;SDS011;73190;50.780;5.658;2024-02-16T13:59:42;21.80;;;16.17;;
83282;SDS011;73190;50.780;5.658;2024-02-16T14:02:10;15.55;;;10.70;;
83282;SDS011;73190;50.780;5.658;2024-02-16T14:04:38;21.40;;;17.25;;
83282;SDS011;73190;50.780;5.658;2024-02-16T14:07:06;18.95;;;14.43;;
83282;SDS011;73190;50.780;5.658;2024-02-16T14:09:33;25.55;;;19.10;;
83282;SDS011;73190;50.780;5.658;2024-02-16T14:12:01;23.38;;;15.88;;
83282;SDS011;73190;50.780;5.658;2024-02-16T14:14:28;20.02;;;13.30;;
83282;SDS011;73190;50.780;5.658;2024-02-16T14:16:56;10.20;;;7.40;;
83282;SDS011;73190;50.780;5.658;2024-02-16T14:19:24;6.67;;;5.25;;
83282;SDS011;73190;50.780;5.658;2024-02-16T14:21:51;9.40;;;6.03;;
83282;SDS011;73190;50.780;5.658;2024-02-16T14:24:19;6.78;;;4.92;;
83282;SDS011;73190;50.780;5.658;2024-02-16T14:26:47;7.65;;;5.10;;
83282;SDS011;73190;50.780;5.658;2024-02-16T14:29:15;7.62;;;5.10;;
83282;SDS011;73190;50.780;5.658;2024-02-16T14:31:42;7.30;;;4.55;;
83282;SDS011;73190;50.780;5.658;2024-02-16T14:34:10;11.28;;;7.22;;
83282;SDS011;73190;50.780;5.658;2024-02-16T14:36:37;19.12;;;14.07;;
83282;SDS011;73190;50.780;5.658;2024-02-16T14:39:05;16.60;;;12.18;;
83282;SDS011;73190;50.780;5.658;2024-02-16T14:41:34;17.12;;;11.08;;
83282;SDS011;73190;50.780;5.658;2024-02-16T14:44:01;6.78;;;5.28;;
83282;SDS011;73190;50.780;5.658;2024-02-16T14:46:29;10.60;;;5.50;;
83282;SDS011;73190;50.780;5.658;2024-02-16T14:48:57;11.30;;;7.25;;
83282;SDS011;73190;50.780;5.658;2024-02-16T14:51:24;6.33;;;4.75;;